sensor_id;sensor_type;location;lat;lon;timestamp;temperature;humidity
2825;DHT22;1420;51.324;12.344;2024-03-17T00:01:34;4.10;99.90
2825;DHT22;1420;51.324;12.344;2024-03-17T00:04:01;4.10;99.90
2825;DHT22;1420;51.324;12.344;2024-03-17T00:06:29;4.10;99.90
2825;DHT22;1420;51.324;12.344;2024-03-17T00:08:56;4.10;99.90
2825;DHT22;1420;51.324;12.344;2024-03-17T00:11:23;4.00;99.90
2825;DHT22;1420;51.324;12.344;2024-03-17T00:13:50;4.00;99.90
2825;DHT22;1420;51.324;12.344;2024-03-17T00:16:18;4.00;99.90
2825;DHT22;1420;51.324;12.344;2024-03-17T00:18:46;3.90;99.90
2825;DHT22;1420;51.324;12.344;2024-03-17T00:21:14;3.80;99.90
2825;DHT22;1420;51.324;12.344;2024-03-17T00:23:41;3.70;99.90
2825;DHT22;1420;51.324;12.344;2024-03-17T00:26:08;3.70;99.90
2825;DHT22;1420;51.324;12.344;2024-03-17T00:28:36;3.70;99.90
2825;DHT22;1420;51.324;12.344;2024-03-17T00:31:03;3.60;99.90
2825;DHT22;1420;51.324;12.344;2024-03-17T00:33:30;3.50;99.90
2825;DHT22;1420;51.324;12.344;2024-03-17T00:35:59;3.50;99.90
2825;DHT22;1420;51.324;12.344;2024-03-17T00:38:24;3.40;99.90
2825;DHT22;1420;51.324;12.344;2024-03-17T00:40:52;3.30;99.90
2825;DHT22;1420;51.324;12.344;2024-03-17T00:43:19;3.30;99.90
2825;DHT22;1420;51.324;12.344;2024-03-17T00:45:51;3.20;99.90
2825;DHT22;1420;51.324;12.344;2024-03-17T00:48:18;3.20;99.90
2825;DHT22;1420;51.324;12.344;2024-03-17T00:50:45;3.30;99.90
2825;DHT22;1420;51.324;12.344;2024-03-17T00:53:12;3.30;99.90
2825;DHT22;1420;51.324;12.344;2024-03-17T00:55:40;3.40;99.90
2825;DHT22;1420;51.324;12.344;2024-03-17T00:58:07;3.30;99.90
2825;DHT22;1420;51.324;12.344;2024-03-17T01:00:34;3.40;99.90
2825;DHT22;1420;51.324;12.344;2024-03-17T01:03:01;3.40;99.90
2825;DHT22;1420;51.324;12.344;2024-03-17T01:05:28;3.30;99.90
2825;DHT22;1420;51.324;12.344;2024-03-17T01:07:56;3.40;99.90
2825;DHT22;1420;51.324;12.344;2024-03-17T01:10:23;3.30;99.90
2825;DHT22;1420;51.324;12.344;2024-03-17T01:12:51;3.30;99.90
2825;DHT22;1420;51.324;12.344;2024-03-17T01:15:19;3.20;99.90
2825;DHT22;1420;51.324;12.344;2024-03-17T01:17:47;3.20;99.90
2825;DHT22;1420;51.324;12.344;2024-03-17T01:20:14;3.10;99.90
2825;DHT22;1420;51.324;12.344;2024-03-17T01:22:41;3.20;99.90
2825;DHT22;1420;51.324;12.344;2024-03-17T01:25:08;3.20;99.90
2825;DHT22;1420;51.324;12.344;2024-03-17T01:27:35;3.30;99.90
2825;DHT22;1420;51.324;12.344;2024-03-17T01:30:03;3.20;99.90
2825;DHT22;1420;51.324;12.344;2024-03-17T01:32:30;3.30;99.90
2825;DHT22;1420;51.324;12.344;2024-03-17T01:34:57;3.20;99.90
2825;DHT22;1420;51.324;12.344;2024-03-17T01:37:25;3.20;99.90
2825;DHT22;1420;51.324;12.344;2024-03-17T01:39:52;3.20;99.90
2825;DHT22;1420;51.324;12.344;2024-03-17T01:42:19;3.20;99.90
2825;DHT22;1420;51.324;12.344;2024-03-17T01:44:46;3.20;99.90
2825;DHT22;1420;51.324;12.344;2024-03-17T01:47:13;3.30;99.90
2825;DHT22;1420;51.324;12.344;2024-03-17T01:49:40;3.30;99.90
2825;DHT22;1420;51.324;12.344;2024-03-17T01:52:08;3.30;99.90
2825;DHT22;1420;51.324;12.344;2024-03-17T01:54:36;3.20;99.90
2825;DHT22;1420;51.324;12.344;2024-03-17T01:57:04;3.20;99.90
2825;DHT22;1420;51.324;12.344;2024-03-17T01:59:32;3.20;99.90
2825;DHT22;1420;51.324;12.344;2024-03-17T02:01:59;3.20;99.90
2825;DHT22;1420;51.324;12.344;2024-03-17T02:04:26;3.20;99.90
2825;DHT22;1420;51.324;12.344;2024-03-17T02:06:53;3.20;99.90
2825;DHT22;1420;51.324;12.344;2024-03-17T02:09:20;3.10;99.90
2825;DHT22;1420;51.324;12.344;2024-03-17T02:11:48;3.20;99.90
2825;DHT22;1420;51.324;12.344;2024-03-17T02:14:15;3.20;99.90
2825;DHT22;1420;51.324;12.344;2024-03-17T02:16:43;3.20;99.90
2825;DHT22;1420;51.324;12.344;2024-03-17T02:19:11;3.20;99.90
2825;DHT22;1420;51.324;12.344;2024-03-17T02:21:39;3.20;99.90
2825;DHT22;1420;51.324;12.344;2024-03-17T02:24:07;3.10;99.90
2825;DHT22;1420;51.324;12.344;2024-03-17T02:26:33;3.20;99.90
2825;DHT22;1420;51.324;12.344;2024-03-17T02:29:00;3.20;99.90
2825;DHT22;1420;51.324;12.344;2024-03-17T02:31:27;3.20;99.90
2825;DHT22;1420;51.324;12.344;2024-03-17T02:33:55;3.20;99.90
2825;DHT22;1420;51.324;12.344;2024-03-17T02:36:22;3.20;99.90
2825;DHT22;1420;51.324;12.344;2024-03-17T02:38:49;3.30;99.90
2825;DHT22;1420;51.324;12.344;2024-03-17T02:41:22;3.20;99.90
2825;DHT22;1420;51.324;12.344;2024-03-17T02:43:49;3.20;99.90
2825;DHT22;1420;51.324;12.344;2024-03-17T02:46:17;3.20;99.90
2825;DHT22;1420;51.324;12.344;2024-03-17T02:48:44;3.10;99.90
2825;DHT22;1420;51.324;12.344;2024-03-17T02:51:12;3.20;99.90
2825;DHT22;1420;51.324;12.344;2024-03-17T02:53:39;3.10;99.90
2825;DHT22;1420;51.324;12.344;2024-03-17T02:56:06;3.10;99.90
2825;DHT22;1420;51.324;12.344;2024-03-17T02:58:36;3.00;99.90
2825;DHT22;1420;51.324;12.344;2024-03-17T03:01:03;3.00;99.90
2825;DHT22;1420;51.324;12.344;2024-03-17T03:03:31;3.00;99.90
2825;DHT22;1420;51.324;12.344;2024-03-17T03:05:58;3.00;99.90
2825;DHT22;1420;51.324;12.344;2024-03-17T03:08:25;3.00;99.90
2825;DHT22;1420;51.324;12.344;2024-03-17T03:10:52;3.00;99.90
2825;DHT22;1420;51.324;12.344;2024-03-17T03:13:19;2.90;99.90
2825;DHT22;1420;51.324;12.344;2024-03-17T03:15:47;2.90;99.90
2825;DHT22;1420;51.324;12.344;2024-03-17T03:18:14;2.90;99.90
2825;DHT22;1420;51.324;12.344;2024-03-17T03:20:41;2.90;99.90
2825;DHT22;1420;51.324;12.344;2024-03-17T03:23:08;2.90;99.90
2825;DHT22;1420;51.324;12.344;2024-03-17T03:25:36;2.90;99.90
2825;DHT22;1420;51.324;12.344;2024-03-17T03:28:04;2.90;99.90
2825;DHT22;1420;51.324;12.344;2024-03-17T03:30:35;2.80;99.90
2825;DHT22;1420;51.324;12.344;2024-03-17T03:32:59;2.80;99.90
2825;DHT22;1420;51.324;12.344;2024-03-17T03:35:28;2.80;99.90
2825;DHT22;1420;51.324;12.344;2024-03-17T03:37:54;2.80;99.90
2825;DHT22;1420;51.324;12.344;2024-03-17T03:40:21;2.80;99.90
2825;DHT22;1420;51.324;12.344;2024-03-17T03:42:48;2.80;99.90
2825;DHT22;1420;51.324;12.344;2024-03-17T03:45:15;2.70;99.90
2825;DHT22;1420;51.324;12.344;2024-03-17T03:47:43;2.60;99.90
2825;DHT22;1420;51.324;12.344;2024-03-17T03:50:10;2.60;99.90
2825;DHT22;1420;51.324;12.344;2024-03-17T03:52:37;2.60;99.90
2825;DHT22;1420;51.324;12.344;2024-03-17T03:55:04;2.60;99.90
2825;DHT22;1420;51.324;12.344;2024-03-17T03:57:31;2.50;99.90
2825;DHT22;1420;51.324;12.344;2024-03-17T03:59:59;2.50;99.90
2825;DHT22;1420;51.324;12.344;2024-03-17T04:02:27;2.40;99.90
2825;DHT22;1420;51.324;12.344;2024-03-17T04:04:54;2.50;99.90
2825;DHT22;1420;51.324;12.344;2024-03-17T04:07:21;2.50;99.90
2825;DHT22;1420;51.324;12.344;2024-03-17T04:09:48;2.50;99.90
2825;DHT22;1420;51.324;12.344;2024-03-17T04:12:15;2.40;99.90
2825;DHT22;1420;51.324;12.344;2024-03-17T04:14:43;2.40;99.90
2825;DHT22;1420;51.324;12.344;2024-03-17T04:17:11;2.30;99.90
2825;DHT22;1420;51.324;12.344;2024-03-17T04:19:39;2.40;99.90
2825;DHT22;1420;51.324;12.344;2024-03-17T04:22:07;2.30;99.90
2825;DHT22;1420;51.324;12.344;2024-03-17T04:24:34;2.30;99.90
2825;DHT22;1420;51.324;12.344;2024-03-17T04:27:01;2.30;99.90
2825;DHT22;1420;51.324;12.344;2024-03-17T04:29:28;2.30;99.90
2825;DHT22;1420;51.324;12.344;2024-03-17T04:31:55;2.20;99.90
2825;DHT22;1420;51.324;12.344;2024-03-17T04:34:23;2.10;99.90
2825;DHT22;1420;51.324;12.344;2024-03-17T04:36:50;2.10;99.90
2825;DHT22;1420;51.324;12.344;2024-03-17T04:39:17;1.90;99.90
2825;DHT22;1420;51.324;12.344;2024-03-17T04:41:44;1.80;99.90
2825;DHT22;1420;51.324;12.344;2024-03-17T04:44:12;1.70;99.90
2825;DHT22;1420;51.324;12.344;2024-03-17T04:46:40;1.90;99.90
2825;DHT22;1420;51.324;12.344;2024-03-17T04:49:07;1.80;99.90
2825;DHT22;1420;51.324;12.344;2024-03-17T04:51:34;1.80;99.90
2825;DHT22;1420;51.324;12.344;2024-03-17T04:54:02;1.90;99.90
2825;DHT22;1420;51.324;12.344;2024-03-17T04:56:30;1.90;99.90
2825;DHT22;1420;51.324;12.344;2024-03-17T04:58:58;1.90;99.90
2825;DHT22;1420;51.324;12.344;2024-03-17T05:01:25;1.90;99.90
2825;DHT22;1420;51.324;12.344;2024-03-17T05:03:53;1.90;99.90
2825;DHT22;1420;51.324;12.344;2024-03-17T05:06:20;1.90;99.90
2825;DHT22;1420;51.324;12.344;2024-03-17T05:08:47;1.90;99.90
2825;DHT22;1420;51.324;12.344;2024-03-17T05:11:14;1.90;99.90
2825;DHT22;1420;51.324;12.344;2024-03-17T05:13:41;2.00;99.90
2825;DHT22;1420;51.324;12.344;2024-03-17T05:16:09;1.90;99.90
2825;DHT22;1420;51.324;12.344;2024-03-17T05:18:36;1.90;99.90
2825;DHT22;1420;51.324;12.344;2024-03-17T05:21:03;1.90;99.90
2825;DHT22;1420;51.324;12.344;2024-03-17T05:23:31;1.80;99.90
2825;DHT22;1420;51.324;12.344;2024-03-17T05:25:57;1.80;99.90
2825;DHT22;1420;51.324;12.344;2024-03-17T05:28:25;1.70;99.90
2825;DHT22;1420;51.324;12.344;2024-03-17T05:30:52;1.60;99.90
2825;DHT22;1420;51.324;12.344;2024-03-17T05:33:19;1.60;99.90
2825;DHT22;1420;51.324;12.344;2024-03-17T05:35:51;1.50;99.90
2825;DHT22;1420;51.324;12.344;2024-03-17T05:38:20;1.70;99.90
2825;DHT22;1420;51.324;12.344;2024-03-17T05:41:06;1.70;99.90
2825;DHT22;1420;51.324;12.344;2024-03-17T05:43:34;1.70;99.90
2825;DHT22;1420;51.324;12.344;2024-03-17T05:46:00;1.70;99.90
2825;DHT22;1420;51.324;12.344;2024-03-17T05:48:29;1.70;99.90
2825;DHT22;1420;51.324;12.344;2024-03-17T05:50:56;1.80;99.90
2825;DHT22;1420;51.324;12.344;2024-03-17T05:53:23;2.00;99.90
2825;DHT22;1420;51.324;12.344;2024-03-17T05:55:51;2.10;99.90
2825;DHT22;1420;51.324;12.344;2024-03-17T05:58:18;2.10;99.90
2825;DHT22;1420;51.324;12.344;2024-03-17T06:00:46;2.30;99.90
2825;DHT22;1420;51.324;12.344;2024-03-17T06:03:13;2.20;99.90
2825;DHT22;1420;51.324;12.344;2024-03-17T06:05:40;2.30;99.90
2825;DHT22;1420;51.324;12.344;2024-03-17T06:08:08;2.40;99.90
2825;DHT22;1420;51.324;12.344;2024-03-17T06:10:35;2.60;99.90
2825;DHT22;1420;51.324;12.344;2024-03-17T06:13:02;2.90;99.90
2825;DHT22;1420;51.324;12.344;2024-03-17T06:15:29;3.30;99.90
2825;DHT22;1420;51.324;12.344;2024-03-17T06:17:57;4.00;99.90
2825;DHT22;1420;51.324;12.344;2024-03-17T06:20:25;3.90;99.90
2825;DHT22;1420;51.324;12.344;2024-03-17T06:22:52;4.50;99.90
2825;DHT22;1420;51.324;12.344;2024-03-17T06:25:19;4.70;99.90
2825;DHT22;1420;51.324;12.344;2024-03-17T06:27:46;5.40;99.90
2825;DHT22;1420;51.324;12.344;2024-03-17T06:30:13;5.80;99.90
2825;DHT22;1420;51.324;12.344;2024-03-17T06:32:41;5.90;99.90
2825;DHT22;1420;51.324;12.344;2024-03-17T06:35:08;6.50;99.90
2825;DHT22;1420;51.324;12.344;2024-03-17T06:37:35;6.70;99.90
2825;DHT22;1420;51.324;12.344;2024-03-17T06:40:03;6.90;99.90
2825;DHT22;1420;51.324;12.344;2024-03-17T06:42:31;7.40;99.90
2825;DHT22;1420;51.324;12.344;2024-03-17T06:44:59;8.40;99.90
2825;DHT22;1420;51.324;12.344;2024-03-17T06:47:26;8.30;99.90
2825;DHT22;1420;51.324;12.344;2024-03-17T06:49:53;8.20;99.90
2825;DHT22;1420;51.324;12.344;2024-03-17T06:52:21;7.30;99.90
2825;DHT22;1420;51.324;12.344;2024-03-17T06:54:48;7.30;99.90
2825;DHT22;1420;51.324;12.344;2024-03-17T06:57:16;7.70;99.90
2825;DHT22;1420;51.324;12.344;2024-03-17T06:59:43;8.80;99.90
2825;DHT22;1420;51.324;12.344;2024-03-17T07:02:10;8.50;99.90
2825;DHT22;1420;51.324;12.344;2024-03-17T07:04:38;8.70;99.90
2825;DHT22;1420;51.324;12.344;2024-03-17T07:07:05;8.10;99.90
2825;DHT22;1420;51.324;12.344;2024-03-17T07:09:32;7.70;99.90
2825;DHT22;1420;51.324;12.344;2024-03-17T07:11:59;7.70;99.90
2825;DHT22;1420;51.324;12.344;2024-03-17T07:14:26;7.60;99.90
2825;DHT22;1420;51.324;12.344;2024-03-17T07:16:54;7.70;99.90
2825;DHT22;1420;51.324;12.344;2024-03-17T07:19:21;7.60;99.90
2825;DHT22;1420;51.324;12.344;2024-03-17T07:21:49;8.30;99.90
2825;DHT22;1420;51.324;12.344;2024-03-17T07:24:17;9.00;99.90
2825;DHT22;1420;51.324;12.344;2024-03-17T07:26:44;8.90;99.90
2825;DHT22;1420;51.324;12.344;2024-03-17T07:29:11;9.20;99.90
2825;DHT22;1420;51.324;12.344;2024-03-17T07:31:38;8.60;99.90
2825;DHT22;1420;51.324;12.344;2024-03-17T07:34:06;8.80;99.90
2825;DHT22;1420;51.324;12.344;2024-03-17T07:36:33;9.20;99.90
2825;DHT22;1420;51.324;12.344;2024-03-17T07:39:00;8.70;99.90
2825;DHT22;1420;51.324;12.344;2024-03-17T07:41:27;8.80;99.90
2825;DHT22;1420;51.324;12.344;2024-03-17T07:43:54;8.50;99.90
2825;DHT22;1420;51.324;12.344;2024-03-17T07:46:22;8.20;99.90
2825;DHT22;1420;51.324;12.344;2024-03-17T07:48:49;8.00;99.90
2825;DHT22;1420;51.324;12.344;2024-03-17T07:51:16;8.20;99.90
2825;DHT22;1420;51.324;12.344;2024-03-17T07:53:44;8.20;99.90
2825;DHT22;1420;51.324;12.344;2024-03-17T07:56:12;8.20;99.90
2825;DHT22;1420;51.324;12.344;2024-03-17T07:58:40;8.50;99.90
2825;DHT22;1420;51.324;12.344;2024-03-17T08:01:06;8.30;99.90
2825;DHT22;1420;51.324;12.344;2024-03-17T08:03:33;8.10;99.90
2825;DHT22;1420;51.324;12.344;2024-03-17T08:06:01;8.20;99.90
2825;DHT22;1420;51.324;12.344;2024-03-17T08:08:29;8.40;99.90
2825;DHT22;1420;51.324;12.344;2024-03-17T08:10:57;8.50;99.90
2825;DHT22;1420;51.324;12.344;2024-03-17T08:13:25;8.50;99.90
2825;DHT22;1420;51.324;12.344;2024-03-17T08:15:56;8.50;99.90
2825;DHT22;1420;51.324;12.344;2024-03-17T08:18:22;9.10;99.90
2825;DHT22;1420;51.324;12.344;2024-03-17T08:20:49;9.00;99.90
2825;DHT22;1420;51.324;12.344;2024-03-17T08:23:16;9.10;99.90
2825;DHT22;1420;51.324;12.344;2024-03-17T08:25:51;9.00;99.90
2825;DHT22;1420;51.324;12.344;2024-03-17T08:28:11;9.00;99.90
2825;DHT22;1420;51.324;12.344;2024-03-17T08:30:38;8.70;99.90
2825;DHT22;1420;51.324;12.344;2024-03-17T08:33:06;9.10;99.90
2825;DHT22;1420;51.324;12.344;2024-03-17T08:35:33;9.00;99.90
2825;DHT22;1420;51.324;12.344;2024-03-17T08:38:00;9.10;99.90
2825;DHT22;1420;51.324;12.344;2024-03-17T08:40:28;9.40;99.90
2825;DHT22;1420;51.324;12.344;2024-03-17T08:42:56;9.50;99.90
2825;DHT22;1420;51.324;12.344;2024-03-17T08:45:24;9.40;99.90
2825;DHT22;1420;51.324;12.344;2024-03-17T08:47:51;9.40;99.90
2825;DHT22;1420;51.324;12.344;2024-03-17T08:50:19;9.50;99.90
2825;DHT22;1420;51.324;12.344;2024-03-17T08:52:47;9.90;99.90
2825;DHT22;1420;51.324;12.344;2024-03-17T08:55:14;9.90;99.90
2825;DHT22;1420;51.324;12.344;2024-03-17T08:57:41;10.00;99.90
2825;DHT22;1420;51.324;12.344;2024-03-17T09:00:09;10.30;99.90
2825;DHT22;1420;51.324;12.344;2024-03-17T09:02:36;10.40;99.90
2825;DHT22;1420;51.324;12.344;2024-03-17T09:05:04;10.50;99.90
2825;DHT22;1420;51.324;12.344;2024-03-17T09:07:31;10.90;99.90
2825;DHT22;1420;51.324;12.344;2024-03-17T09:09:58;11.40;99.90
2825;DHT22;1420;51.324;12.344;2024-03-17T09:12:26;11.10;99.90
2825;DHT22;1420;51.324;12.344;2024-03-17T09:14:53;11.30;99.90
2825;DHT22;1420;51.324;12.344;2024-03-17T09:17:20;11.50;99.90
2825;DHT22;1420;51.324;12.344;2024-03-17T09:19:48;11.50;99.90
2825;DHT22;1420;51.324;12.344;2024-03-17T09:22:16;11.40;99.90
2825;DHT22;1420;51.324;12.344;2024-03-17T09:24:44;11.40;99.90
2825;DHT22;1420;51.324;12.344;2024-03-17T09:27:12;11.30;99.90
2825;DHT22;1420;51.324;12.344;2024-03-17T09:29:40;11.50;99.90
2825;DHT22;1420;51.324;12.344;2024-03-17T09:32:08;11.20;99.90
2825;DHT22;1420;51.324;12.344;2024-03-17T09:34:35;11.10;99.90
2825;DHT22;1420;51.324;12.344;2024-03-17T09:37:02;11.10;99.90
2825;DHT22;1420;51.324;12.344;2024-03-17T09:39:30;11.00;99.90
2825;DHT22;1420;51.324;12.344;2024-03-17T09:41:57;10.90;99.90
2825;DHT22;1420;51.324;12.344;2024-03-17T09:44:24;10.70;99.10
2825;DHT22;1420;51.324;12.344;2024-03-17T09:46:52;10.40;99.90
2825;DHT22;1420;51.324;12.344;2024-03-17T09:49:19;10.10;99.90
2825;DHT22;1420;51.324;12.344;2024-03-17T09:51:46;9.90;99.90
2825;DHT22;1420;51.324;12.344;2024-03-17T09:54:18;9.80;99.90
2825;DHT22;1420;51.324;12.344;2024-03-17T09:56:45;9.90;99.90
2825;DHT22;1420;51.324;12.344;2024-03-17T09:59:13;9.80;99.90
2825;DHT22;1420;51.324;12.344;2024-03-17T10:01:41;9.90;99.90
2825;DHT22;1420;51.324;12.344;2024-03-17T10:04:08;9.80;99.90
2825;DHT22;1420;51.324;12.344;2024-03-17T10:06:44;9.80;99.90
2825;DHT22;1420;51.324;12.344;2024-03-17T10:09:02;10.50;99.30
2825;DHT22;1420;51.324;12.344;2024-03-17T10:11:33;10.50;99.90
2825;DHT22;1420;51.324;12.344;2024-03-17T10:14:03;10.90;98.00
2825;DHT22;1420;51.324;12.344;2024-03-17T10:16:30;11.50;99.90
2825;DHT22;1420;51.324;12.344;2024-03-17T10:19:06;11.70;96.70
2825;DHT22;1420;51.324;12.344;2024-03-17T10:21:33;12.10;93.80
2825;DHT22;1420;51.324;12.344;2024-03-17T10:24:12;12.30;94.40
2825;DHT22;1420;51.324;12.344;2024-03-17T10:26:43;11.70;91.70
2825;DHT22;1420;51.324;12.344;2024-03-17T10:29:19;12.00;93.70
2825;DHT22;1420;51.324;12.344;2024-03-17T10:31:45;12.00;93.80
2825;DHT22;1420;51.324;12.344;2024-03-17T10:34:14;11.90;94.50
2825;DHT22;1420;51.324;12.344;2024-03-17T10:36:41;12.10;91.90
2825;DHT22;1420;51.324;12.344;2024-03-17T10:39:23;11.80;93.90
2825;DHT22;1420;51.324;12.344;2024-03-17T10:41:49;11.60;91.60
2825;DHT22;1420;51.324;12.344;2024-03-17T10:44:16;11.60;92.10
2825;DHT22;1420;51.324;12.344;2024-03-17T10:46:44;12.10;91.70
2825;DHT22;1420;51.324;12.344;2024-03-17T10:49:11;12.00;90.70
2825;DHT22;1420;51.324;12.344;2024-03-17T10:51:38;12.20;90.60
2825;DHT22;1420;51.324;12.344;2024-03-17T10:54:06;12.90;88.60
2825;DHT22;1420;51.324;12.344;2024-03-17T10:56:34;13.10;89.90
2825;DHT22;1420;51.324;12.344;2024-03-17T10:59:01;13.10;89.70
2825;DHT22;1420;51.324;12.344;2024-03-17T11:01:28;13.20;87.40
2825;DHT22;1420;51.324;12.344;2024-03-17T11:03:56;13.00;91.60
2825;DHT22;1420;51.324;12.344;2024-03-17T11:06:24;13.10;86.50
2825;DHT22;1420;51.324;12.344;2024-03-17T11:08:52;13.00;85.80
2825;DHT22;1420;51.324;12.344;2024-03-17T11:11:34;12.50;86.60
2825;DHT22;1420;51.324;12.344;2024-03-17T11:13:46;12.40;87.10
2825;DHT22;1420;51.324;12.344;2024-03-17T11:16:24;12.90;90.50
2825;DHT22;1420;51.324;12.344;2024-03-17T11:18:41;12.10;90.30
2825;DHT22;1420;51.324;12.344;2024-03-17T11:21:18;11.90;90.30
2825;DHT22;1420;51.324;12.344;2024-03-17T11:23:42;11.90;90.30
2825;DHT22;1420;51.324;12.344;2024-03-17T11:26:09;12.20;91.00
2825;DHT22;1420;51.324;12.344;2024-03-17T11:28:45;12.40;89.00
2825;DHT22;1420;51.324;12.344;2024-03-17T11:33:51;12.40;89.70
2825;DHT22;1420;51.324;12.344;2024-03-17T11:36:35;12.50;88.50
2825;DHT22;1420;51.324;12.344;2024-03-17T11:39:09;12.20;86.90
2825;DHT22;1420;51.324;12.344;2024-03-17T11:41:39;12.60;87.50
2825;DHT22;1420;51.324;12.344;2024-03-17T11:44:24;12.60;87.30
2825;DHT22;1420;51.324;12.344;2024-03-17T11:46:43;12.60;80.20
2825;DHT22;1420;51.324;12.344;2024-03-17T11:49:18;13.10;80.10
2825;DHT22;1420;51.324;12.344;2024-03-17T11:51:44;12.90;78.80
2825;DHT22;1420;51.324;12.344;2024-03-17T11:54:15;12.80;79.80
2825;DHT22;1420;51.324;12.344;2024-03-17T11:56:42;12.30;79.40
2825;DHT22;1420;51.324;12.344;2024-03-17T11:59:10;12.40;76.70
2825;DHT22;1420;51.324;12.344;2024-03-17T12:01:38;12.20;81.20
2825;DHT22;1420;51.324;12.344;2024-03-17T12:04:06;12.60;79.50
2825;DHT22;1420;51.324;12.344;2024-03-17T12:06:34;12.50;82.70
2825;DHT22;1420;51.324;12.344;2024-03-17T12:09:07;12.40;82.60
2825;DHT22;1420;51.324;12.344;2024-03-17T12:11:34;12.50;82.70
2825;DHT22;1420;51.324;12.344;2024-03-17T12:14:23;12.70;80.30
2825;DHT22;1420;51.324;12.344;2024-03-17T12:16:53;12.60;80.20
2825;DHT22;1420;51.324;12.344;2024-03-17T12:19:20;12.90;78.20
2825;DHT22;1420;51.324;12.344;2024-03-17T12:21:49;12.50;78.80
2825;DHT22;1420;51.324;12.344;2024-03-17T12:24:18;12.10;77.60
2825;DHT22;1420;51.324;12.344;2024-03-17T12:26:45;12.10;77.60
2825;DHT22;1420;51.324;12.344;2024-03-17T12:29:22;12.10;77.40
2825;DHT22;1420;51.324;12.344;2024-03-17T12:31:50;11.90;75.50
2825;DHT22;1420;51.324;12.344;2024-03-17T12:34:16;12.00;76.40
2825;DHT22;1420;51.324;12.344;2024-03-17T12:36:43;11.90;75.10
2825;DHT22;1420;51.324;12.344;2024-03-17T12:39:21;11.70;75.10
2825;DHT22;1420;51.324;12.344;2024-03-17T12:42:07;11.50;77.40
2825;DHT22;1420;51.324;12.344;2024-03-17T12:44:34;11.50;80.00
2825;DHT22;1420;51.324;12.344;2024-03-17T12:47:02;11.70;78.30
2825;DHT22;1420;51.324;12.344;2024-03-17T12:49:29;12.10;77.90
2825;DHT22;1420;51.324;12.344;2024-03-17T12:51:56;12.40;77.20
2825;DHT22;1420;51.324;12.344;2024-03-17T12:54:24;12.50;73.80
2825;DHT22;1420;51.324;12.344;2024-03-17T12:56:52;12.70;77.70
2825;DHT22;1420;51.324;12.344;2024-03-17T12:59:24;12.80;75.50
2825;DHT22;1420;51.324;12.344;2024-03-17T13:02:00;13.20;72.50
2825;DHT22;1420;51.324;12.344;2024-03-17T13:04:25;13.20;72.80
2825;DHT22;1420;51.324;12.344;2024-03-17T13:06:52;12.90;75.60
2825;DHT22;1420;51.324;12.344;2024-03-17T13:09:20;13.00;72.40
2825;DHT22;1420;51.324;12.344;2024-03-17T13:11:48;12.90;70.60
2825;DHT22;1420;51.324;12.344;2024-03-17T13:14:16;12.60;71.60
2825;DHT22;1420;51.324;12.344;2024-03-17T13:16:43;12.60;71.60
2825;DHT22;1420;51.324;12.344;2024-03-17T13:19:10;12.70;76.10
2825;DHT22;1420;51.324;12.344;2024-03-17T13:21:38;12.00;72.10
2825;DHT22;1420;51.324;12.344;2024-03-17T13:24:05;12.00;72.90
2825;DHT22;1420;51.324;12.344;2024-03-17T13:26:33;11.80;74.80
2825;DHT22;1420;51.324;12.344;2024-03-17T13:29:01;11.80;73.50
2825;DHT22;1420;51.324;12.344;2024-03-17T13:31:28;11.80;73.40
2825;DHT22;1420;51.324;12.344;2024-03-17T13:33:56;11.50;69.30
2825;DHT22;1420;51.324;12.344;2024-03-17T13:36:24;11.00;74.20
2825;DHT22;1420;51.324;12.344;2024-03-17T13:38:52;11.00;75.00
2825;DHT22;1420;51.324;12.344;2024-03-17T13:41:18;11.30;74.00
2825;DHT22;1420;51.324;12.344;2024-03-17T13:43:45;11.20;73.50
2825;DHT22;1420;51.324;12.344;2024-03-17T13:46:12;11.30;74.70
2825;DHT22;1420;51.324;12.344;2024-03-17T13:48:40;11.40;72.50
2825;DHT22;1420;51.324;12.344;2024-03-17T13:51:08;11.20;75.60
2825;DHT22;1420;51.324;12.344;2024-03-17T13:53:35;11.30;73.60
2825;DHT22;1420;51.324;12.344;2024-03-17T13:56:03;11.40;75.20
2825;DHT22;1420;51.324;12.344;2024-03-17T13:58:30;11.00;71.50
2825;DHT22;1420;51.324;12.344;2024-03-17T14:00:58;10.90;75.20
2825;DHT22;1420;51.324;12.344;2024-03-17T14:03:26;10.90;72.10
2825;DHT22;1420;51.324;12.344;2024-03-17T14:05:53;10.80;72.00
2825;DHT22;1420;51.324;12.344;2024-03-17T14:08:20;10.80;71.70
2825;DHT22;1420;51.324;12.344;2024-03-17T14:10:48;10.90;73.80
2825;DHT22;1420;51.324;12.344;2024-03-17T14:13:16;10.90;75.90
2825;DHT22;1420;51.324;12.344;2024-03-17T14:15:44;10.90;72.00
2825;DHT22;1420;51.324;12.344;2024-03-17T14:18:12;10.90;72.00
2825;DHT22;1420;51.324;12.344;2024-03-17T14:20:39;11.00;72.20
2825;DHT22;1420;51.324;12.344;2024-03-17T14:23:06;11.10;71.30
2825;DHT22;1420;51.324;12.344;2024-03-17T14:25:33;11.00;70.60
2825;DHT22;1420;51.324;12.344;2024-03-17T14:28:00;11.70;99.90
2825;DHT22;1420;51.324;12.344;2024-03-17T14:30:28;11.80;85.50
2825;DHT22;1420;51.324;12.344;2024-03-17T14:32:55;11.30;77.70
2825;DHT22;1420;51.324;12.344;2024-03-17T14:35:22;11.10;80.00
2825;DHT22;1420;51.324;12.344;2024-03-17T14:37:49;10.80;79.60
2825;DHT22;1420;51.324;12.344;2024-03-17T14:40:17;10.80;77.50
2825;DHT22;1420;51.324;12.344;2024-03-17T14:42:48;10.60;78.50
2825;DHT22;1420;51.324;12.344;2024-03-17T14:45:14;10.70;76.60
2825;DHT22;1420;51.324;12.344;2024-03-17T14:47:41;10.70;75.70
2825;DHT22;1420;51.324;12.344;2024-03-17T14:50:09;10.70;75.90
2825;DHT22;1420;51.324;12.344;2024-03-17T14:52:36;10.90;75.10
2825;DHT22;1420;51.324;12.344;2024-03-17T14:55:03;10.90;76.80
2825;DHT22;1420;51.324;12.344;2024-03-17T14:57:31;10.70;74.40
2825;DHT22;1420;51.324;12.344;2024-03-17T14:59:58;10.80;73.60
2825;DHT22;1420;51.324;12.344;2024-03-17T15:02:25;10.80;74.10
2825;DHT22;1420;51.324;12.344;2024-03-17T15:07:23;10.90;75.90
2825;DHT22;1420;51.324;12.344;2024-03-17T15:09:50;10.60;78.80
2825;DHT22;1420;51.324;12.344;2024-03-17T15:12:18;10.50;80.30
2825;DHT22;1420;51.324;12.344;2024-03-17T15:14:46;10.50;80.40
2825;DHT22;1420;51.324;12.344;2024-03-17T15:17:12;10.60;80.70
2825;DHT22;1420;51.324;12.344;2024-03-17T15:19:40;10.40;78.90
2825;DHT22;1420;51.324;12.344;2024-03-17T15:22:07;10.50;78.70
2825;DHT22;1420;51.324;12.344;2024-03-17T15:24:34;10.60;78.90
2825;DHT22;1420;51.324;12.344;2024-03-17T15:27:01;10.60;78.20
2825;DHT22;1420;51.324;12.344;2024-03-17T15:29:28;10.40;78.70
2825;DHT22;1420;51.324;12.344;2024-03-17T15:31:56;10.40;80.40
2825;DHT22;1420;51.324;12.344;2024-03-17T15:34:23;10.50;79.30
2825;DHT22;1420;51.324;12.344;2024-03-17T15:36:50;10.30;79.70
2825;DHT22;1420;51.324;12.344;2024-03-17T15:39:18;10.30;79.70
2825;DHT22;1420;51.324;12.344;2024-03-17T15:41:45;10.20;81.60
2825;DHT22;1420;51.324;12.344;2024-03-17T15:44:12;10.20;81.40
2825;DHT22;1420;51.324;12.344;2024-03-17T15:46:39;10.40;81.50
2825;DHT22;1420;51.324;12.344;2024-03-17T15:49:07;10.30;81.30
2825;DHT22;1420;51.324;12.344;2024-03-17T15:51:34;10.30;83.20
2825;DHT22;1420;51.324;12.344;2024-03-17T15:54:01;10.10;82.20
2825;DHT22;1420;51.324;12.344;2024-03-17T15:56:28;10.10;84.10
2825;DHT22;1420;51.324;12.344;2024-03-17T15:58:55;10.10;84.50
2825;DHT22;1420;51.324;12.344;2024-03-17T16:01:22;10.10;84.20
2825;DHT22;1420;51.324;12.344;2024-03-17T16:03:50;10.00;86.90